EIKN

Ireland West Knock Airport

Charleston, Ireland
TAF EIKN 201700Z 2018/2118 27006KT 9999 FEW015 SCT050 BECMG 2021/2024 22005KT BECMG 2102/2105 18008KT BECMG 2107/2110 18014KT 5000 -RA BKN008 TEMPO 2110/2115 18016G28KT 2000 RA BKN005 BECMG 2115/2118 25012KT NSW BKN020
Issued Valid From Valid To
Jan-20 @ 17:00 UTC
(4 hours ago)
Jan-20 @ 18:00 UTC
(3 hours ago)
Jan-21 @ 18:00 UTC
(in 21 hours)
Expired Click to View Jan-20 @ 18:00 to Jan-20 @ 21:00
TAF EIKN 201700Z 2018/2118 27006KT 9999 FEW015 SCT050
Wind Visibility Clouds
270° at 6 knots 10,000+ meters
  • Few at 1,500' AGL
  • Scattered at 5,000' AGL
Becoming Jan-20 @ 21:00 to Jan-21 @ 02:00
BECMG 2021/2024 22005KT
Wind Visibility Clouds
220° at 5 knots 10,000+ meters
  • Few at 1,500' AGL
  • Scattered at 5,000' AGL
Becoming Jan-21 @ 02:00 to Jan-21 @ 07:00
BECMG 2102/2105 18008KT
Wind Visibility Clouds
180° at 8 knots 10,000+ meters
  • Few at 1,500' AGL
  • Scattered at 5,000' AGL
Becoming Jan-21 @ 07:00 to Jan-21 @ 15:00
BECMG 2107/2110 18014KT 5000 -RA BKN008
Wind Visibility Clouds Conditions
180° at 14 knots 5,005 meters
  • Broken at 800' AGL
  • Light Rain
Temporary Jan-21 @ 10:00 to Jan-21 @ 15:00
TEMPO 2110/2115 18016G28KT 2000 RA BKN005
Wind Visibility Clouds Conditions
180° at 16 knots
 Gusting to 28 knots
1,996 meters
  • Broken at 500' AGL
  • Rain
Becoming Jan-21 @ 15:00 to Jan-21 @ 18:00
BECMG 2115/2118 25012KT NSW BKN020
Wind Visibility Clouds Conditions
250° at 12 knots 5,005 meters
  • Broken at 2,000' AGL
TAF EIKN 201700Z 2018/2118 27006KT 9999 FEW015 SCT050 BECMG 2021/2024 22005KT BECMG 2102/2105 18008KT BECMG 2107/2110 18014KT 5000 -RA BKN008 TEMPO 2110/2115 18016G28KT 2000 RA BKN005 BECMG 2115/2118 25012KT NSW BKN020
Issued Jan-20 @ 17:00 UTC
(4 hours ago)
Valid From Jan-20 @ 18:00 UTC
(3 hours ago)
Valid To Jan-21 @ 18:00 UTC
(in 21 hours)
Jan-20 @ 18:00 - Jan-20 @ 21:00
Wind Visibility
270° at 6 knots 10,000+ meters
Clouds
  • Few at 1,500' AGL
  • Scattered at 5,000' AGL
Becoming Jan-20 @ 21:00 - Jan-21 @ 02:00
Wind Visibility
220° at 5 knots 10,000+ meters
Clouds
  • Few at 1,500' AGL
  • Scattered at 5,000' AGL
Becoming Jan-21 @ 02:00 - Jan-21 @ 07:00
Wind Visibility
180° at 8 knots 10,000+ meters
Clouds
  • Few at 1,500' AGL
  • Scattered at 5,000' AGL
Becoming Jan-21 @ 07:00 - Jan-21 @ 15:00
Wind Visibility
180° at 14 knots 5,005 meters
Clouds
  • Broken at 800' AGL
Conditions
  • Light Rain
Temporary Jan-21 @ 10:00 - Jan-21 @ 15:00
Wind Visibility
180° at 16 knots
 Gusting to 28 knots
1,996 meters
Clouds
  • Broken at 500' AGL
Conditions
  • Rain
Becoming Jan-21 @ 15:00 - Jan-21 @ 18:00
Wind Visibility
250° at 12 knots 5,005 meters
Clouds
  • Broken at 2,000' AGL
Conditions